Time;durP1;ratioP1;P1;durP2;ratioP2;P2;SDS_P1;SDS_P2;PMS_P1;PMS_P2;Temp;Humidity;BMP_temperature;BMP_pressure;BME280_temperature;BME280_humidity;BME280_pressure;Samples;Min_cycle;Max_cycle;Signal;HPM_P1;HPM_P2
2022/03/10 00:00:08;;;;;;;30.65;18.67;;;;;;;3.15;49.86;100373.09;4325343;33;34780;-68
2022/03/10 00:02:40;;;;;;;25.08;13.70;;;;;;;3.03;50.87;100375.41;4331548;33;34688;-67
2022/03/10 00:05:12;;;;;;;21.50;12.77;;;;;;;3.38;50.16;100383.72;4333098;33;33549;-67
2022/03/10 00:07:40;;;;;;;22.65;13.18;;;;;;;2.75;52.06;100388.59;4332772;33;33850;-66
2022/03/10 00:10:08;;;;;;;22.05;12.93;;;;;;;2.37;52.65;100383.22;4332888;33;34773;-66
2022/03/10 00:12:35;;;;;;;19.85;11.90;;;;;;;2.28;53.79;100389.66;4332795;33;33753;-66
2022/03/10 00:15:05;;;;;;;19.77;11.82;;;;;;;2.79;52.33;100389.91;4333153;33;33664;-66
2022/03/10 00:17:32;;;;;;;19.10;10.95;;;;;;;2.66;52.13;100390.53;4332676;33;33527;-66
2022/03/10 00:20:00;;;;;;;22.65;12.43;;;;;;;2.61;52.50;100393.75;4332990;33;35054;-66
2022/03/10 00:22:27;;;;;;;19.20;10.20;;;;;;;2.38;53.23;100393.75;4333050;33;34035;-65
2022/03/10 00:24:55;;;;;;;20.80;11.02;;;;;;;2.98;51.55;100397.41;4332684;33;33804;-69
2022/03/10 00:27:22;;;;;;;9.05;4.43;;;;;;;2.40;53.21;100397.09;4332777;33;33676;-66
2022/03/10 00:29:50;;;;;;;18.40;10.20;;;;;;;2.50;53.41;100398.69;4331690;33;34331;-67
2022/03/10 00:32:17;;;;;;;18.23;10.48;;;;;;;2.21;53.90;100403.75;4332641;33;34733;-68
2022/03/10 00:34:46;;;;;;;17.67;10.18;;;;;;;2.19;54.27;100408.47;4332928;33;33221;-66
2022/03/10 00:37:14;;;;;;;19.30;10.23;;;;;;;1.82;55.20;100412.69;4332574;33;33758;-66
2022/03/10 00:39:41;;;;;;;18.25;10.18;;;;;;;2.35;54.30;100412.03;4332599;33;33855;-66
2022/03/10 00:42:09;;;;;;;18.87;10.60;;;;;;;2.54;53.32;100416.06;4332841;33;33923;-67
2022/03/10 00:44:37;;;;;;;17.25;9.27;;;;;;;1.74;55.42;100428.78;4332626;33;33192;-66
2022/03/10 00:47:04;;;;;;;15.50;9.57;;;;;;;2.34;53.70;100431.78;4332287;33;34459;-68
2022/03/10 00:49:32;;;;;;;0.50;0.50;;;;;;;1.90;54.30;100427.03;4331807;33;34194;-67
2022/03/10 00:51:59;;;;;;;18.08;9.50;;;;;;;2.53;52.68;100428.62;4332851;33;33938;-66
2022/03/10 00:54:26;;;;;;;22.67;13.32;;;;;;;2.37;52.68;100426.91;4332029;33;33304;-68
2022/03/10 00:56:54;;;;;;;24.90;13.70;;;;;;;1.66;54.46;100442.19;4332360;33;33808;-67
2022/03/10 00:59:21;;;;;;;18.85;11.07;;;;;;;1.30;55.60;100452.53;4332626;33;34979;-66
2022/03/10 01:01:49;;;;;;;0.98;0.88;;;;;;;1.28;55.71;100454.53;4332825;33;33784;-67
2022/03/10 01:04:17;;;;;;;20.67;10.82;;;;;;;1.59;54.74;100451.91;4332844;33;33905;-66
2022/03/10 01:06:44;;;;;;;21.08;12.13;;;;;;;1.48;55.03;100469.19;4332131;33;34068;-67
2022/03/10 01:09:11;;;;;;;13.45;8.07;;;;;;;1.84;54.64;100469.53;4331742;33;33524;-67
2022/03/10 01:11:39;;;;;;;18.58;10.75;;;;;;;1.82;54.35;100468.88;4332629;33;34092;-66
2022/03/10 01:14:06;;;;;;;10.15;5.62;;;;;;;1.69;55.18;100481.97;4332867;33;33711;-67
2022/03/10 01:16:34;;;;;;;23.70;11.35;;;;;;;2.18;53.80;100479.09;4332346;33;34522;-68
2022/03/10 01:19:02;;;;;;;1.35;0.68;;;;;;;1.83;54.52;100480.41;4332650;33;35012;-67
2022/03/10 01:21:29;;;;;;;1.60;1.05;;;;;;;2.25;53.29;100481.88;4332809;33;33491;-66
2022/03/10 01:23:57;;;;;;;21.40;10.65;;;;;;;2.17;53.37;100476.56;4332769;33;32697;-67
2022/03/10 01:26:24;;;;;;;1.40;0.98;;;;;;;2.03;53.67;100479.00;4332192;33;33962;-67
2022/03/10 01:28:52;;;;;;;19.23;10.90;;;;;;;2.51;52.76;100470.84;4332676;33;34323;-67
2022/03/10 01:31:19;;;;;;;17.90;10.82;;;;;;;1.87;53.61;100470.22;4332526;33;34639;-66
2022/03/10 01:33:47;;;;;;;18.35;10.50;;;;;;;1.74;54.08;100474.25;4332497;33;33203;-68
2022/03/10 01:36:15;;;;;;;18.15;10.07;;;;;;;2.04;53.53;100472.62;4332052;33;33947;-67
2022/03/10 01:38:42;;;;;;;17.10;10.13;;;;;;;2.01;53.47;100478.34;4332500;33;34194;-67
2022/03/10 01:41:11;;;;;;;17.60;10.85;;;;;;;1.70;54.24;100475.62;4332584;33;33941;-67
2022/03/10 01:43:59;;;;;;;18.25;10.85;;;;;;;1.89;54.22;100486.91;4332519;33;34444;-67
2022/03/10 01:46:27;;;;;;;20.12;10.80;;;;;;;1.78;54.54;100483.63;4332085;33;33993;-66
2022/03/10 01:48:55;;;;;;;17.02;10.32;;;;;;;1.84;54.38;100496.31;4332731;33;34181;-68
2022/03/10 01:51:24;;;;;;;18.27;10.75;;;;;;;1.88;54.22;100494.13;4332488;33;34054;-66
2022/03/10 01:53:52;;;;;;;24.50;12.52;;;;;;;1.57;55.18;100500.22;4332530;33;34399;-66
2022/03/10 01:56:21;;;;;;;22.17;11.77;;;;;;;1.07;56.56;100501.34;4331988;33;34019;-66
2022/03/10 01:58:51;;;;;;;20.00;10.73;;;;;;;1.32;55.92;100510.16;4332311;33;34216;-65
2022/03/10 02:01:19;;;;;;;22.00;11.30;;;;;;;1.16;56.73;100511.00;4332096;33;34642;-68
2022/03/10 02:03:47;;;;;;;0.62;0.60;;;;;;;1.43;56.34;100512.47;4332109;33;33758;-66
2022/03/10 02:06:15;;;;;;;2.42;1.65;;;;;;;2.03;55.09;100505.75;4332196;33;34801;-66
2022/03/10 02:11:29;;;;;;;21.58;11.27;;;;;;;1.71;56.57;100506.72;4332319;33;33656;-66
2022/03/10 02:13:56;;;;;;;24.05;12.07;;;;;;;1.15;58.23;100509.34;4332308;33;33542;-67
2022/03/10 02:19:10;;;;;;;1.33;1.25;;;;;;;1.32;58.19;100526.19;4332202;33;35043;-67
2022/03/10 02:21:37;;;;;;;0.73;0.73;;;;;;;2.15;56.40;100524.94;4332011;33;33587;-68
2022/03/10 02:24:05;;;;;;;22.50;11.95;;;;;;;2.35;55.75;100524.50;4318717;33;34279;-66
2022/03/10 02:26:32;;;;;;;21.42;12.02;;;;;;;1.69;57.19;100515.94;4331771;33;33877;-67
2022/03/10 02:29:00;;;;;;;20.02;11.18;;;;;;;1.75;57.13;100525.91;4331876;33;34120;-66
2022/03/10 02:31:27;;;;;;;23.20;12.68;;;;;;;1.43;57.62;100528.53;4318608;33;33698;-68
2022/03/10 02:33:56;;;;;;;21.35;11.75;;;;;;;1.38;58.20;100546.06;4332077;33;33187;-68
2022/03/10 02:36:24;;;;;;;22.30;12.05;;;;;;;1.52;57.91;100541.87;4331505;33;33888;-66
2022/03/10 02:38:51;;;;;;;22.27;11.50;;;;;;;1.79;57.99;100546.84;4331962;33;34031;-67
2022/03/10 02:41:20;;;;;;;10.05;5.35;;;;;;;1.79;58.05;100540.62;4331963;33;33830;-67
2022/03/10 02:43:47;;;;;;;22.73;11.50;;;;;;;1.84;58.18;100540.97;4331836;33;34302;-68
2022/03/10 02:46:14;;;;;;;9.13;2.58;;;;;;;1.75;58.54;100553.53;4331541;33;34036;-66
2022/03/10 02:48:42;;;;;;;19.90;11.23;;;;;;;1.95;58.26;100545.94;4331866;33;34976;-66
2022/03/10 02:51:09;;;;;;;20.02;10.93;;;;;;;2.52;57.05;100558.22;4331493;33;33808;-66
2022/03/10 02:53:37;;;;;;;20.65;11.80;;;;;;;2.12;58.25;100554.75;4331791;33;33842;-66
2022/03/10 02:56:05;;;;;;;20.60;11.25;;;;;;;1.80;59.36;100550.34;4331027;33;33637;-66
2022/03/10 02:58:32;;;;;;;20.10;11.82;;;;;;;2.60;58.50;100557.34;4331747;33;34089;-66
2022/03/10 03:01:00;;;;;;;22.52;11.75;;;;;;;2.20;59.47;100561.88;4331545;33;35253;-65
2022/03/10 03:03:28;;;;;;;23.55;11.77;;;;;;;2.15;59.81;100558.91;4331602;33;33266;-66
2022/03/10 03:05:55;;;;;;;13.55;7.62;;;;;;;1.90;59.98;100567.03;4331053;33;34623;-65
2022/03/10 03:08:22;;;;;;;20.60;11.82;;;;;;;2.39;58.65;100571.34;4331662;33;33963;-67
2022/03/10 03:10:50;;;;;;;1.05;0.88;;;;;;;2.22;58.85;100571.41;4331787;33;33721;-67
2022/03/10 03:13:17;;;;;;;22.02;12.43;;;;;;;2.56;58.32;100567.56;4331194;33;33352;-67
2022/03/10 03:15:45;;;;;;;23.38;13.50;;;;;;;2.87;57.57;100572.91;4331070;33;34733;-66
2022/03/10 03:18:12;;;;;;;1.15;1.05;;;;;;;2.64;58.37;100580.91;4331412;33;35054;-66
2022/03/10 03:20:40;;;;;;;25.30;14.50;;;;;;;2.62;58.32;100582.94;4331331;33;34395;-68
2022/03/10 03:23:07;;;;;;;26.92;13.93;;;;;;;2.61;57.62;100586.63;4331593;33;34250;-67
2022/03/10 03:25:35;;;;;;;23.65;13.50;;;;;;;3.29;56.07;100584.12;4331460;33;34080;-68
2022/03/10 03:28:02;;;;;;;24.10;13.93;;;;;;;3.02;56.33;100582.84;4330884;33;34711;-67
2022/03/10 03:30:30;;;;;;;1.33;1.23;;;;;;;2.90;56.81;100576.25;4331127;33;33734;-67
2022/03/10 03:32:57;;;;;;;26.40;14.45;;;;;;;1.90;59.66;100596.47;4333066;33;34368;-68
2022/03/10 03:35:25;;;;;;;26.45;15.15;;;;;;;1.75;60.10;100596.34;4333204;33;33662;-66
2022/03/10 03:37:52;;;;;;;29.92;17.00;;;;;;;1.54;61.05;100599.53;4333302;33;34196;-68
2022/03/10 03:40:20;;;;;;;27.55;15.05;;;;;;;1.63;60.68;100613.72;4333361;33;33951;-66
2022/03/10 03:42:47;;;;;;;29.70;14.98;;;;;;;1.87;59.57;100610.19;4333087;33;34315;-66
2022/03/10 03:45:15;;;;;;;28.67;15.80;;;;;;;1.96;59.17;100616.34;4333311;33;33780;-68
2022/03/10 03:47:43;;;;;;;30.62;15.32;;;;;;;2.51;57.46;100618.16;4332891;33;34928;-66
2022/03/10 03:50:11;;;;;;;29.87;15.75;;;;;;;2.52;57.84;100629.69;4333051;33;34537;-66
2022/03/10 03:52:39;;;;;;;28.50;15.25;;;;;;;2.58;57.26;100632.50;4333219;33;33695;-66
2022/03/10 03:55:08;;;;;;;24.80;14.95;;;;;;;2.82;56.65;100636.91;4333174;33;34005;-67
2022/03/10 03:57:36;;;;;;;27.30;15.55;;;;;;;2.72;57.00;100633.63;4333097;33;34089;-69
2022/03/10 04:00:05;;;;;;;2.40;1.25;;;;;;;2.54;57.39;100641.91;4333117;33;34581;-66
2022/03/10 04:02:36;;;;;;;27.52;14.50;;;;;;;3.07;55.95;100645.66;4332932;33;33703;-67
2022/03/10 04:05:04;;;;;;;24.30;13.57;;;;;;;3.26;55.37;100655.06;4333184;33;34038;-67
2022/03/10 04:07:31;;;;;;;21.87;13.45;;;;;;;3.34;55.62;100646.13;4332975;33;34267;-67
2022/03/10 04:09:59;;;;;;;24.35;13.40;;;;;;;2.95;56.79;100665.00;4332980;33;33860;-67
2022/03/10 04:12:26;;;;;;;27.17;14.38;;;;;;;3.08;56.67;100663.38;4333071;33;34189;-66
2022/03/10 04:14:54;;;;;;;23.08;13.62;;;;;;;3.11;56.91;100662.22;4332985;33;34100;-67
2022/03/10 04:17:21;;;;;;;2.20;2.05;;;;;;;2.91;57.96;100658.31;4332590;33;33740;-66
2022/03/10 04:19:49;;;;;;;22.20;13.70;;;;;;;3.07;57.80;100666.25;4332976;33;33631;-66
2022/03/10 04:22:18;;;;;;;0.93;0.90;;;;;;;2.90;58.44;100670.87;4333100;33;33685;-74
2022/03/10 04:24:45;;;;;;;23.55;12.77;;;;;;;3.28;57.84;100677.19;4332777;33;33927;-69
2022/03/10 04:27:13;;;;;;;25.58;12.80;;;;;;;2.97;58.54;100679.06;4332510;33;34713;-67
2022/03/10 04:29:40;;;;;;;21.65;12.37;;;;;;;3.71;56.88;100684.72;4332929;33;34550;-70
2022/03/10 04:32:08;;;;;;;20.05;11.32;;;;;;;3.36;58.25;100689.69;4332806;33;33901;-70
2022/03/10 04:34:36;;;;;;;19.80;10.77;;;;;;;3.73;57.78;100674.63;4333108;33;34220;-70
2022/03/10 04:37:03;;;;;;;21.40;11.30;;;;;;;3.68;58.53;100680.56;4332614;33;34646;-66
2022/03/10 04:39:31;;;;;;;19.35;10.27;;;;;;;3.44;60.11;100678.09;4332873;33;34064;-71
2022/03/10 04:41:58;;;;;;;17.55;9.43;;;;;;;3.03;61.83;100676.50;4332818;33;34384;-71
2022/03/10 04:44:26;;;;;;;0.65;0.65;;;;;;;2.83;63.44;100691.34;4332127;33;33622;-68
2022/03/10 04:46:53;;;;;;;19.50;10.98;;;;;;;2.93;63.31;100697.31;4332306;33;33669;-66
2022/03/10 04:49:21;;;;;;;17.40;10.35;;;;;;;2.59;64.80;100705.69;4332941;33;34063;-70
2022/03/10 04:51:48;;;;;;;16.05;9.52;;;;;;;3.20;62.67;100708.59;4332627;33;34262;-66
2022/03/10 04:54:15;;;;;;;19.35;11.12;;;;;;;3.19;62.33;100712.25;4332785;33;33697;-67
2022/03/10 04:56:43;;;;;;;19.40;11.50;;;;;;;2.99;63.05;100718.06;4332256;33;35073;-66
2022/03/10 04:59:10;;;;;;;0.77;0.70;;;;;;;3.17;62.85;100723.16;4332941;33;34091;-66
2022/03/10 05:01:38;;;;;;;20.30;12.00;;;;;;;3.57;61.63;100723.91;4332665;33;33100;-66
2022/03/10 05:04:06;;;;;;;23.60;12.80;;;;;;;3.23;62.56;100722.47;4332621;33;34222;-65
2022/03/10 05:06:33;;;;;;;21.80;11.70;;;;;;;3.40;61.65;100731.25;4332325;33;35082;-68
2022/03/10 05:09:00;;;;;;;19.85;11.65;;;;;;;3.13;62.38;100739.78;4332649;33;34572;-66
2022/03/10 05:11:28;;;;;;;18.58;11.10;;;;;;;3.05;62.23;100730.78;4326033;33;34266;-66
2022/03/10 05:13:55;;;;;;;24.05;12.52;;;;;;;2.80;62.80;100745.28;4323214;33;33745;-68
2022/03/10 05:16:23;;;;;;;19.55;10.65;;;;;;;3.09;61.54;100744.69;4317394;33;35085;-66
2022/03/10 05:18:51;;;;;;;19.08;10.45;;;;;;;2.83;61.48;100752.97;4325317;33;34025;-66
2022/03/10 05:21:18;;;;;;;18.55;9.80;;;;;;;2.74;61.46;100760.22;4324056;33;32908;-70
2022/03/10 05:23:45;;;;;;;16.12;9.40;;;;;;;2.51;61.12;100760.13;4324635;33;33611;-65
2022/03/10 05:26:13;;;;;;;16.52;8.88;;;;;;;3.03;58.26;100767.66;4324639;33;34168;-67
2022/03/10 05:28:40;;;;;;;16.48;7.93;;;;;;;2.80;58.75;100772.09;4329868;33;34090;-69
2022/03/10 05:31:08;;;;;;;15.13;7.97;;;;;;;3.02;57.26;100770.50;4320280;33;33517;-64
2022/03/10 05:33:39;;;;;;;12.23;6.68;;;;;;;3.05;56.16;100772.84;4321801;33;34078;-65
2022/03/10 05:36:06;;;;;;;13.45;7.87;;;;;;;2.44;56.70;100780.56;4322409;33;34927;-67
2022/03/10 05:38:33;;;;;;;11.80;7.12;;;;;;;2.85;55.85;100780.44;4327138;33;33559;-68
2022/03/10 05:41:01;;;;;;;10.15;5.95;;;;;;;3.14;54.32;100782.50;4327686;33;33927;-66
2022/03/10 05:43:29;;;;;;;10.55;5.35;;;;;;;2.61;52.77;100774.19;4324864;33;34082;-68
2022/03/10 05:45:56;;;;;;;8.65;5.50;;;;;;;3.02;50.73;100779.41;4331761;33;34665;-67
2022/03/10 05:48:24;;;;;;;9.63;5.07;;;;;;;2.71;52.00;100781.19;4332269;33;33998;-67
2022/03/10 05:50:51;;;;;;;11.50;5.60;;;;;;;2.87;50.90;100789.16;4329380;33;34050;-67
2022/03/10 05:53:19;;;;;;;9.73;5.32;;;;;;;3.15;49.49;100786.84;4319840;33;33817;-66
2022/03/10 05:55:46;;;;;;;7.57;4.68;;;;;;;3.34;48.59;100784.75;4316817;33;35025;-65
2022/03/10 05:58:14;;;;;;;12.23;5.40;;;;;;;2.83;48.91;100790.50;4327721;33;34037;-65
2022/03/10 06:00:44;;;;;;;11.40;6.28;;;;;;;2.82;48.54;100797.72;4316347;33;34024;-66
2022/03/10 06:03:12;;;;;;;11.27;5.72;;;;;;;2.82;48.60;100795.03;4317322;33;34510;-66
2022/03/10 06:05:39;;;;;;;8.50;4.32;;;;;;;2.88;48.73;100799.72;4316927;33;34179;-70
2022/03/10 06:08:07;;;;;;;8.20;4.72;;;;;;;2.80;48.63;100799.72;4316565;33;35255;-72
2022/03/10 06:10:34;;;;;;;9.50;5.30;;;;;;;3.23;47.34;100808.28;4317175;33;33850;-68
2022/03/10 06:13:02;;;;;;;9.13;4.72;;;;;;;2.87;47.54;100795.38;4316989;33;34350;-71
2022/03/10 06:15:30;;;;;;;5.95;3.90;;;;;;;2.57;47.82;100801.47;4317057;33;34347;-67
2022/03/10 06:17:58;;;;;;;7.87;4.03;;;;;;;2.30;48.46;100813.41;4316488;33;35063;-73
2022/03/10 06:20:25;;;;;;;6.00;3.53;;;;;;;2.15;48.59;100821.25;4316880;33;33060;-67
2022/03/10 06:22:52;;;;;;;8.23;4.20;;;;;;;2.51;48.09;100831.62;4316934;33;34615;-70
2022/03/10 06:25:20;;;;;;;7.75;4.07;;;;;;;2.44;48.51;100831.44;4316679;33;34059;-71
2022/03/10 06:27:48;;;;;;;7.70;4.55;;;;;;;2.25;48.71;100829.97;4316635;33;34556;-72
2022/03/10 06:30:16;;;;;;;7.37;4.15;;;;;;;2.32;48.19;100835.50;4316382;33;34875;-71
2022/03/10 06:32:43;;;;;;;7.20;4.22;;;;;;;2.43;48.26;100840.50;4315026;33;34807;-72
2022/03/10 06:35:11;;;;;;;0.57;0.57;;;;;;;2.49;47.45;100834.47;4316752;33;34307;-70
2022/03/10 06:37:43;;;;;;;7.20;4.05;;;;;;;2.46;48.02;100846.38;4316616;33;33846;-71
2022/03/10 06:40:13;;;;;;;6.90;3.78;;;;;;;2.23;48.77;100840.00;4316692;33;33465;-71
2022/03/10 06:42:40;;;;;;;8.00;4.37;;;;;;;2.24;48.58;100850.53;4303546;33;33957;-73
2022/03/10 06:45:08;;;;;;;8.50;3.72;;;;;;;2.28;48.56;100855.56;4316450;33;33844;-82
2022/03/10 06:47:40;;;;;;;8.60;4.50;;;;;;;2.38;48.42;100854.41;4316033;33;33167;-71
2022/03/10 06:50:08;;;;;;;7.50;4.30;;;;;;;2.37;48.03;100859.91;4316061;33;34257;-67
2022/03/10 06:52:35;;;;;;;8.27;3.90;;;;;;;2.16;47.88;100858.59;4316097;33;33676;-73
2022/03/10 06:55:04;;;;;;;0.47;0.47;;;;;;;2.40;47.10;100860.44;4316496;33;34907;-75
2022/03/10 06:57:31;;;;;;;6.40;3.60;;;;;;;2.56;46.47;100869.44;4316081;33;34759;-70
2022/03/10 06:59:58;;;;;;;8.75;3.97;;;;;;;2.16;47.91;100871.97;4315743;33;34126;-68
2022/03/10 07:02:26;;;;;;;0.57;0.57;;;;;;;2.38;47.76;100865.13;4316415;33;34625;-66
2022/03/10 07:04:53;;;;;;;8.02;4.45;;;;;;;2.44;48.46;100883.19;4316631;33;34334;-70
2022/03/10 07:07:21;;;;;;;0.62;0.62;;;;;;;2.96;47.21;100883.78;4317123;33;33870;-71
2022/03/10 07:09:49;;;;;;;6.90;4.07;;;;;;;2.90;47.40;100888.00;4318480;33;34404;-74
2022/03/10 07:12:16;;;;;;;6.50;3.75;;;;;;;2.63;47.59;100891.88;4318538;33;33578;-70
2022/03/10 07:14:44;;;;;;;7.78;3.95;;;;;;;2.46;47.22;100888.34;4317861;33;34630;-74
2022/03/10 07:17:11;;;;;;;7.30;3.62;;;;;;;2.76;46.74;100894.03;4318194;33;34344;-67
2022/03/10 07:19:39;;;;;;;5.68;3.50;;;;;;;2.57;46.03;100892.53;4318239;33;34481;-67
2022/03/10 07:22:06;;;;;;;7.82;4.12;;;;;;;2.85;45.46;100901.06;4318289;33;34549;-70
2022/03/10 07:24:34;;;;;;;6.70;4.25;;;;;;;2.86;46.16;100902.75;4318188;33;35193;-70
2022/03/10 07:27:02;;;;;;;8.57;4.80;;;;;;;2.91;45.76;100905.75;4318140;33;33845;-66
2022/03/10 07:29:29;;;;;;;7.80;4.28;;;;;;;2.98;45.68;100904.06;4317828;33;33451;-66
2022/03/10 07:31:57;;;;;;;8.18;4.97;;;;;;;2.76;46.75;100905.59;4318179;33;34205;-71
2022/03/10 07:34:25;;;;;;;8.25;4.60;;;;;;;3.16;46.10;100908.37;4317991;33;34839;-65
2022/03/10 07:36:53;;;;;;;9.27;4.90;;;;;;;3.12;45.35;100905.19;4318323;33;33922;-69
2022/03/10 07:39:21;;;;;;;6.90;4.03;;;;;;;2.98;45.92;100908.56;4318301;33;34249;-68
2022/03/10 07:41:48;;;;;;;8.43;4.12;;;;;;;3.36;45.03;100908.81;4304938;33;33943;-66
2022/03/10 07:44:16;;;;;;;8.27;4.22;;;;;;;3.39;44.88;100900.41;4316315;33;33838;-65
2022/03/10 07:46:43;;;;;;;7.93;4.37;;;;;;;4.08;43.66;100906.78;4304425;33;34632;-69
2022/03/10 07:49:11;;;;;;;7.37;4.12;;;;;;;4.49;43.08;100911.87;4318156;33;34373;-67
2022/03/10 07:51:42;;;;;;;7.07;4.45;;;;;;;5.09;40.59;100906.59;4318227;33;33930;-66
2022/03/10 07:54:11;;;;;;;7.15;3.87;;;;;;;5.23;40.39;100913.03;4317900;33;34308;-69
2022/03/10 07:56:38;;;;;;;7.82;4.45;;;;;;;5.89;38.58;100904.94;4317774;33;33955;-66
2022/03/10 07:59:05;;;;;;;8.38;4.47;;;;;;;6.06;38.13;100917.19;4320152;33;33940;-71
2022/03/10 08:01:33;;;;;;;9.00;4.45;;;;;;;7.00;37.18;100916.19;4328766;33;33854;-72
2022/03/10 08:04:02;;;;;;;9.18;4.50;;;;;;;7.92;36.44;100912.31;4318050;33;34229;-74
2022/03/10 08:06:29;;;;;;;8.13;4.62;;;;;;;7.40;34.96;100914.56;4317732;33;34743;-71
2022/03/10 08:08:57;;;;;;;7.45;4.55;;;;;;;6.98;35.38;100918.25;4317602;33;33180;-70
2022/03/10 08:11:25;;;;;;;10.02;4.78;;;;;;;6.00;37.44;100922.50;4317783;33;34873;-68
2022/03/10 08:13:53;;;;;;;8.20;4.30;;;;;;;5.55;38.13;100909.94;4316037;33;35052;-67
2022/03/10 08:16:20;;;;;;;8.82;4.60;;;;;;;5.18;38.57;100916.25;4317308;33;33603;-69
2022/03/10 08:18:49;;;;;;;6.40;4.10;;;;;;;5.80;38.03;100917.69;4304366;33;33934;-68
2022/03/10 08:21:17;;;;;;;8.25;4.40;;;;;;;6.18;36.45;100914.84;4318084;33;33995;-69
2022/03/10 08:23:44;;;;;;;7.18;4.62;;;;;;;6.00;37.98;100917.12;4317688;33;34857;-68
2022/03/10 08:26:12;;;;;;;8.15;4.37;;;;;;;6.23;37.25;100927.75;4317711;33;34298;-69
2022/03/10 08:28:39;;;;;;;7.03;4.25;;;;;;;6.12;37.01;100926.41;4317133;33;34047;-68
2022/03/10 08:31:06;;;;;;;0.57;0.57;;;;;;;6.15;36.26;100920.59;4316937;33;33516;-67
2022/03/10 08:33:35;;;;;;;6.57;4.07;;;;;;;7.05;34.64;100921.00;4317041;33;34026;-68
2022/03/10 08:36:05;;;;;;;10.80;4.57;;;;;;;7.03;34.46;100926.59;4316745;33;34790;-68
2022/03/10 08:38:33;;;;;;;7.00;4.40;;;;;;;6.36;35.48;100927.88;4317296;33;33249;-69
2022/03/10 08:41:00;;;;;;;10.73;4.45;;;;;;;6.55;35.05;100910.22;4317900;33;33378;-66
2022/03/10 08:43:31;;;;;;;7.95;3.92;;;;;;;7.25;34.05;100919.25;4317489;33;35126;-68
2022/03/10 08:46:01;;;;;;;7.62;4.30;;;;;;;7.29;33.98;100909.72;4304842;33;34615;-66
2022/03/10 08:48:32;;;;;;;6.15;3.72;;;;;;;6.85;35.08;100912.78;4318033;33;33907;-67
2022/03/10 08:51:00;;;;;;;9.02;4.70;;;;;;;6.24;36.38;100907.84;4317496;33;33907;-66
2022/03/10 08:53:29;;;;;;;9.57;5.70;;;;;;;6.39;36.58;100910.47;4304614;33;35169;-67
2022/03/10 08:55:57;;;;;;;8.15;4.47;;;;;;;6.64;35.39;100911.75;4317503;33;34666;-67
2022/03/10 08:58:25;;;;;;;7.60;4.37;;;;;;;5.88;35.62;100908.69;4316977;33;33563;-67
2022/03/10 09:00:52;;;;;;;10.88;4.65;;;;;;;5.65;37.25;100909.62;4303977;33;33987;-66
2022/03/10 09:03:40;;;;;;;10.30;5.57;;;;;;;5.86;36.57;100911.56;4317542;33;34103;-69
2022/03/10 09:06:10;;;;;;;10.02;4.72;;;;;;;5.98;36.42;100903.84;4317259;33;33998;-66
2022/03/10 09:08:38;;;;;;;5.85;3.72;;;;;;;5.79;34.93;100920.56;4317697;33;32928;-69
2022/03/10 09:11:06;;;;;;;7.60;3.65;;;;;;;5.51;31.71;100908.66;4317659;33;34044;-67
2022/03/10 09:13:34;;;;;;;6.72;3.50;;;;;;;5.50;31.80;100920.41;4303877;33;35167;-68
2022/03/10 09:16:01;;;;;;;6.47;3.67;;;;;;;5.97;31.05;100914.81;4317582;33;33617;-67
2022/03/10 09:18:29;;;;;;;8.98;3.67;;;;;;;5.77;32.05;100920.78;4317413;33;33248;-67
2022/03/10 09:20:56;;;;;;;5.93;3.50;;;;;;;5.82;31.95;100931.00;4317057;33;33432;-69
2022/03/10 09:23:24;;;;;;;6.65;3.62;;;;;;;6.78;31.14;100935.13;4317684;33;34091;-67
2022/03/10 09:25:51;;;;;;;8.63;3.65;;;;;;;6.65;31.06;100931.47;4317118;33;33996;-71
2022/03/10 09:28:19;;;;;;;6.95;3.70;;;;;;;5.58;30.61;100924.87;4316975;33;33813;-70
2022/03/10 09:30:46;;;;;;;5.97;3.85;;;;;;;5.96;29.48;100940.91;4316298;33;33867;-69
2022/03/10 09:33:14;;;;;;;5.62;3.15;;;;;;;6.36;29.77;100944.88;4317429;33;34027;-69
2022/03/10 09:35:41;;;;;;;6.43;3.53;;;;;;;6.52;30.30;100937.56;4317762;33;33970;-67
2022/03/10 09:38:09;;;;;;;7.05;3.95;;;;;;;6.65;30.00;100944.94;4317764;33;33734;-67
2022/03/10 09:40:36;;;;;;;8.88;3.60;;;;;;;6.58;30.44;100934.09;4317928;33;34049;-68
2022/03/10 09:43:04;;;;;;;6.20;3.45;;;;;;;6.98;29.17;100943.38;4317924;33;35036;-68
2022/03/10 09:45:31;;;;;;;7.82;3.67;;;;;;;7.32;28.45;100949.00;4317627;33;34630;-68
2022/03/10 09:47:59;;;;;;;8.43;4.05;;;;;;;7.15;28.90;100933.13;4317635;33;33557;-66
2022/03/10 09:50:27;;;;;;;5.90;3.40;;;;;;;6.70;28.65;100940.66;4304401;33;33903;-67
2022/03/10 09:52:55;;;;;;;6.12;3.65;;;;;;;6.25;29.65;100947.25;4304884;33;33945;-68
2022/03/10 09:55:22;;;;;;;5.68;3.10;;;;;;;6.41;28.90;100948.87;4317515;33;33942;-66
2022/03/10 09:57:50;;;;;;;6.30;3.22;;;;;;;6.75;28.45;100945.47;4317596;33;33544;-67
2022/03/10 10:00:18;;;;;;;5.80;3.53;;;;;;;6.19;29.37;100945.31;4304555;33;33979;-66
2022/03/10 10:02:46;;;;;;;6.60;3.00;;;;;;;6.69;28.53;100946.22;4317516;33;33986;-67
2022/03/10 10:05:33;;;;;;;5.93;3.28;;;;;;;6.63;28.88;100944.31;4317554;33;34725;-69
2022/03/10 10:08:01;;;;;;;6.80;3.47;;;;;;;6.70;29.15;100940.66;4317382;33;34393;-69
2022/03/10 10:10:30;;;;;;;6.00;3.53;;;;;;;6.14;28.72;100953.97;4304438;33;34149;-72
2022/03/10 10:13:06;;;;;;;5.37;3.25;;;;;;;5.98;28.96;100951.50;4303213;33;34155;-67
2022/03/10 10:15:38;;;;;;;7.00;3.05;;;;;;;6.25;29.21;100949.97;4317503;33;34129;-71
2022/03/10 10:18:14;;;;;;;6.43;3.33;;;;;;;6.59;29.04;100962.75;4304192;33;34395;-66
2022/03/10 10:21:03;;;;;;;5.07;2.95;;;;;;;7.28;27.28;100964.78;4317417;33;33630;-66
2022/03/10 10:23:33;;;;;;;6.65;3.37;;;;;;;7.79;27.05;100950.91;4317550;33;34053;-66
2022/03/10 10:26:06;;;;;;;6.45;3.10;;;;;;;7.65;25.89;100953.78;4317138;33;35247;-68
2022/03/10 10:28:40;;;;;;;5.25;3.00;;;;;;;7.25;26.92;100956.22;4314508;33;33651;-69
2022/03/10 10:31:15;;;;;;;5.60;3.00;;;;;;;7.44;26.07;100963.63;4317124;33;34636;-71
2022/03/10 10:33:54;;;;;;;;;;;;;;;7.57;25.87;100969.09;4317603;33;35211;-67
2022/03/10 10:36:24;;;;;;;4.55;2.83;;;;;;;7.22;25.15;100972.81;4316754;33;34240;-65
2022/03/10 10:38:57;;;;;;;4.57;2.70;;;;;;;6.92;25.91;100963.03;4317250;33;33643;-68
2022/03/10 10:41:31;;;;;;;5.00;2.70;;;;;;;6.76;25.72;100957.94;4318403;33;34797;-66
2022/03/10 10:44:00;;;;;;;;;;;;;;;7.13;25.20;100972.13;4319060;33;34087;-67
2022/03/10 10:46:39;;;;;;;4.82;2.50;;;;;;;7.34;24.84;100963.13;4318304;33;34396;-68
2022/03/10 10:49:19;;;;;;;4.32;2.90;;;;;;;7.08;25.39;100959.22;4295731;33;34859;-67
2022/03/10 10:51:51;;;;;;;5.43;2.92;;;;;;;7.69;24.46;100957.72;4311042;33;34750;-67
2022/03/10 10:54:23;;;;;;;4.10;2.33;;;;;;;8.36;24.05;100959.66;4312852;33;35193;-68
2022/03/10 10:56:52;;;;;;;4.53;2.55;;;;;;;8.69;23.32;100960.78;4318528;33;33812;-68
2022/03/10 10:59:30;;;;;;;4.78;2.40;;;;;;;8.43;22.96;100966.97;4318461;33;33440;-69
2022/03/10 11:02:16;;;;;;;4.18;2.75;;;;;;;8.11;23.37;100966.66;4306413;33;33747;-69
2022/03/10 11:04:52;;;;;;;4.37;2.50;;;;;;;8.47;24.30;100960.97;4318508;33;34219;-70
2022/03/10 11:07:22;;;;;;;3.85;2.33;;;;;;;8.04;22.73;100966.63;4318349;33;34139;-68
2022/03/10 11:09:54;;;;;;;5.10;2.80;;;;;;;8.25;22.70;100971.06;4318878;33;33224;-70
2022/03/10 11:12:21;;;;;;;5.00;2.42;;;;;;;8.41;22.85;100959.06;4318472;33;33922;-64
2022/03/10 11:14:49;;;;;;;3.62;2.12;;;;;;;8.17;23.03;100963.97;4318353;33;34328;-67
2022/03/10 11:17:18;;;;;;;4.75;2.72;;;;;;;8.55;23.60;100968.03;4317536;33;33570;-67
2022/03/10 11:19:54;;;;;;;4.90;2.75;;;;;;;8.19;22.99;100961.88;4318169;33;33285;-68
2022/03/10 11:22:47;;;;;;;5.90;3.37;;;;;;;9.32;22.53;100957.62;4319031;33;34915;-66
2022/03/10 11:25:20;;;;;;;4.90;2.85;;;;;;;8.44;24.39;100949.69;4318815;33;34502;-68
2022/03/10 11:27:53;;;;;;;5.18;3.40;;;;;;;8.38;24.26;100960.28;4317851;33;34103;-67
2022/03/10 11:30:25;;;;;;;5.65;3.10;;;;;;;7.35;26.27;100960.25;4305615;33;33292;-67
2022/03/10 11:32:59;;;;;;;4.68;2.72;;;;;;;9.04;23.80;100958.69;4304872;33;34094;-67
2022/03/10 11:35:32;;;;;;;6.07;3.35;;;;;;;9.33;23.17;100956.56;4318231;33;34044;-66
2022/03/10 11:38:00;;;;;;;5.87;2.90;;;;;;;10.01;23.32;100948.03;4318405;33;34714;-67